Time;durP1;ratioP1;P1;durP2;ratioP2;P2;SDS_P1;SDS_P2;PMS_P1;PMS_P2;Temp;Humidity;BMP_temperature;BMP_pressure;BME280_temperature;BME280_humidity;BME280_pressure;Samples;Min_cycle;Max_cycle;Signal;HPM_P1;HPM_P2
2023/03/20 00:00:27;;;;;;;10.77;6.97;;;10.10;99.90;;;;;;5031572;28;20276;-82
2023/03/20 00:02:56;;;;;;;10.00;7.00;;;10.10;99.90;;;;;;5020716;28;20251;-82
2023/03/20 00:05:24;;;;;;;13.03;7.47;;;10.00;99.90;;;;;;5016949;28;20292;-85
2023/03/20 00:07:52;;;;;;;13.33;7.53;;;10.00;99.90;;;;;;5030748;28;20744;-83
2023/03/20 00:10:19;;;;;;;11.80;7.87;;;10.00;99.90;;;;;;5020314;28;20201;-81
2023/03/20 00:12:48;;;;;;;11.70;7.07;;;10.00;99.90;;;;;;5025254;28;20267;-82
2023/03/20 00:15:24;;;;;;;18.33;10.63;;;10.00;99.90;;;;;;5028458;28;20284;-81
2023/03/20 00:17:52;;;;;;;19.10;11.33;;;10.00;99.90;;;;;;5027198;28;20252;-84
2023/03/20 00:20:21;;;;;;;23.13;14.00;;;10.10;99.90;;;;;;5027911;28;20267;-81
2023/03/20 00:22:48;;;;;;;24.27;15.63;;;10.10;99.90;;;;;;5024592;28;20295;-83
2023/03/20 00:25:16;;;;;;;29.57;18.30;;;10.10;99.90;;;;;;5020570;28;20299;-81
2023/03/20 00:27:43;;;;;;;27.33;16.47;;;10.00;99.90;;;;;;5020608;28;20215;-83
2023/03/20 00:30:21;;;;;;;31.40;18.63;;;9.90;99.90;;;;;;5020975;28;20214;-85
2023/03/20 00:32:49;;;;;;;34.70;20.33;;;9.80;99.90;;;;;;5031562;28;20247;-85
2023/03/20 00:35:24;;;;;;;29.77;17.83;;;9.70;99.90;;;;;;5030268;28;20220;-85
2023/03/20 00:37:52;;;;;;;31.60;18.43;;;9.70;99.90;;;;;;5022963;28;20618;-84
2023/03/20 00:40:20;;;;;;;35.73;19.53;;;9.60;99.90;;;;;;5029884;28;20212;-84
2023/03/20 00:42:50;;;;;;;33.03;18.80;;;9.50;99.90;;;;;;5026004;28;20232;-82
2023/03/20 00:45:20;;;;;;;33.17;18.33;;;9.50;99.90;;;;;;5020805;28;20209;-82
2023/03/20 00:47:50;;;;;;;32.80;18.23;;;9.40;99.90;;;;;;5024253;28;20772;-84
2023/03/20 00:50:19;;;;;;;31.93;18.20;;;9.30;99.90;;;;;;5019995;28;20215;-82
2023/03/20 00:52:48;;;;;;;35.07;19.30;;;9.30;99.90;;;;;;5031430;28;20227;-82
2023/03/20 00:55:15;;;;;;;36.43;19.20;;;9.30;99.90;;;;;;5024102;28;20223;-84
2023/03/20 00:57:45;;;;;;;38.23;19.17;;;9.20;99.90;;;;;;5026343;28;20208;-81
2023/03/20 01:00:27;;;;;;;37.83;19.03;;;9.20;99.90;;;;;;5024316;28;20290;-81
2023/03/20 01:02:57;;;;;;;38.13;19.87;;;9.20;99.90;;;;;;5026859;28;20224;-84
2023/03/20 01:05:26;;;;;;;32.87;18.87;;;9.20;99.90;;;;;;5025678;28;20219;-82
2023/03/20 01:07:54;;;;;;;34.47;18.40;;;9.20;99.90;;;;;;5019763;28;20196;-82
2023/03/20 01:10:22;;;;;;;38.33;19.00;;;9.20;99.90;;;;;;5016694;28;20208;-82
2023/03/20 01:12:49;;;;;;;37.10;19.17;;;9.20;99.90;;;;;;5016428;28;20227;-83
2023/03/20 01:15:20;;;;;;;33.90;18.17;;;9.30;99.90;;;;;;5020883;28;20255;-81
2023/03/20 01:17:47;;;;;;;33.47;17.33;;;9.30;99.90;;;;;;5025718;28;20212;-85
2023/03/20 01:20:23;;;;;;;34.60;18.53;;;9.30;99.90;;;;;;5020603;28;20204;-82
2023/03/20 01:22:49;;;;;;;35.67;19.13;;;9.20;99.90;;;;;;5021554;28;20664;-82
2023/03/20 01:25:18;;;;;;;35.90;18.63;;;9.20;99.90;;;;;;5023809;28;20619;-82
2023/03/20 01:27:49;;;;;;;36.03;18.27;;;9.30;99.90;;;;;;5025945;28;20234;-83
2023/03/20 01:30:19;;;;;;;35.37;17.43;;;9.20;99.90;;;;;;5024565;28;20251;-84
2023/03/20 01:32:47;;;;;;;34.37;17.57;;;9.20;99.90;;;;;;5027029;28;20224;-82
2023/03/20 01:35:15;;;;;;;34.23;17.73;;;9.20;99.90;;;;;;5017520;28;20236;-85
2023/03/20 01:37:44;;;;;;;33.83;17.40;;;9.20;99.90;;;;;;5022370;28;20214;-84
2023/03/20 01:40:31;;;;;;;35.70;18.23;;;9.20;99.90;;;;;;5020147;28;20214;-82
2023/03/20 01:42:58;;;;;;;33.70;18.03;;;9.20;99.90;;;;;;5027338;28;20275;-84
2023/03/20 01:45:30;;;;;;;35.93;18.33;;;9.30;99.90;;;;;;5025220;28;20661;-85
2023/03/20 01:47:57;;;;;;;35.53;18.63;;;9.20;99.90;;;;;;5026286;28;20242;-81
2023/03/20 01:50:30;;;;;;;36.27;18.57;;;9.20;99.90;;;;;;5028932;28;20239;-84
2023/03/20 01:53:08;;;;;;;35.93;18.47;;;9.30;99.90;;;;;;5023165;28;20295;-81
2023/03/20 01:55:38;;;;;;;36.43;18.37;;;9.20;99.90;;;;;;5028885;28;20227;-83
2023/03/20 01:58:09;;;;;;;36.00;17.67;;;9.30;99.90;;;;;;5014982;28;20676;-82
2023/03/20 02:00:37;;;;;;;37.20;18.93;;;9.10;99.90;;;;;;5024666;28;20291;-82
2023/03/20 02:03:05;;;;;;;35.40;17.53;;;9.20;99.90;;;;;;5025219;28;20220;-83
2023/03/20 02:05:33;;;;;;;37.50;17.07;;;9.10;99.90;;;;;;5024048;28;20224;-81
2023/03/20 02:08:11;;;;;;;36.37;17.63;;;9.10;99.90;;;;;;5027034;28;20208;-82
2023/03/20 02:10:40;;;;;;;37.40;17.43;;;9.10;99.90;;;;;;5018110;28;20303;-82
2023/03/20 02:13:08;;;;;;;35.93;18.97;;;9.00;99.90;;;;;;5024807;28;20745;-82
2023/03/20 02:15:36;;;;;;;35.90;18.23;;;9.10;99.90;;;;;;5031244;28;20219;-82
2023/03/20 02:18:03;;;;;;;39.73;19.40;;;9.20;99.90;;;;;;5020559;28;20215;-85
2023/03/20 02:20:44;;;;;;;39.87;18.47;;;9.10;99.90;;;;;;5029933;28;20207;-83
2023/03/20 02:23:43;;;;;;;38.90;18.10;;;9.10;99.90;;;;;;5023673;28;20246;-82
2023/03/20 02:26:38;;;;;;;41.47;18.57;;;9.10;99.90;;;;;;5023749;28;20629;-82
2023/03/20 02:29:45;;;;;;;39.00;18.97;;;9.10;99.90;;;;;;5025925;28;20276;-82
2023/03/20 02:32:41;;;;;;;37.50;17.73;;;9.10;99.90;;;;;;5022218;28;20238;-82
2023/03/20 02:36:02;;;;;;;33.90;16.50;;;9.10;99.90;;;;;;5019664;28;20292;-82
2023/03/20 02:39:00;;;;;;;39.77;18.37;;;9.00;99.90;;;;;;4954504;29;20283;-85
2023/03/20 02:41:32;;;;;;;41.93;19.10;;;9.00;99.90;;;;;;4998079;28;20288;-85
2023/03/20 02:44:05;;;;;;;37.90;17.37;;;8.90;99.90;;;;;;5023848;28;20291;-82
2023/03/20 02:46:40;;;;;;;38.20;18.30;;;9.00;99.90;;;;;;5017951;28;20260;-82
2023/03/20 02:49:19;;;;;;;34.30;15.57;;;9.00;99.90;;;;;;5022404;28;20291;-84
2023/03/20 02:51:56;;;;;;;34.27;15.00;;;9.00;99.90;;;;;;5010422;28;20228;-82
2023/03/20 02:54:32;;;;;;;32.07;15.03;;;9.00;99.90;;;;;;5018180;28;20200;-84
2023/03/20 02:57:04;;;;;;;29.53;14.53;;;9.10;99.90;;;;;;5008405;28;20292;-82
2023/03/20 02:59:40;;;;;;;30.87;14.77;;;9.10;99.90;;;;;;5004106;28;20212;-83
2023/03/20 03:02:09;;;;;;;30.20;13.80;;;9.30;99.90;;;;;;5013952;28;20326;-81
2023/03/20 03:04:41;;;;;;;28.67;12.90;;;9.30;99.90;;;;;;5016589;28;20228;-85
2023/03/20 03:07:11;;;;;;;31.57;14.47;;;9.40;99.90;;;;;;5019973;28;20276;-82
2023/03/20 03:09:43;;;;;;;29.47;12.97;;;9.40;99.90;;;;;;5017435;28;20621;-82
2023/03/20 03:12:15;;;;;;;27.67;11.93;;;9.40;99.90;;;;;;5013428;28;20220;-82
2023/03/20 03:14:46;;;;;;;27.13;12.37;;;9.40;99.90;;;;;;5017691;28;20220;-82
2023/03/20 03:17:14;;;;;;;27.43;12.40;;;9.40;99.90;;;;;;5025362;28;20267;-85
2023/03/20 03:19:46;;;;;;;28.10;12.80;;;9.20;99.90;;;;;;5022119;28;20265;-85
2023/03/20 03:22:14;;;;;;;28.37;13.20;;;9.20;99.90;;;;;;5013657;28;20274;-82
2023/03/20 03:24:46;;;;;;;28.07;11.43;;;9.10;99.90;;;;;;5023387;28;20906;-81
2023/03/20 03:27:18;;;;;;;29.50;12.57;;;9.10;99.90;;;;;;5014299;28;20212;-82
2023/03/20 03:29:49;;;;;;;30.13;12.07;;;9.10;99.90;;;;;;5007392;28;20209;-83
2023/03/20 03:32:32;;;;;;;26.53;11.30;;;8.80;99.90;;;;;;5016926;28;20292;-84
2023/03/20 03:35:01;;;;;;;30.47;13.70;;;8.80;99.90;;;;;;5019784;28;20240;-83
2023/03/20 03:37:44;;;;;;;30.77;13.03;;;8.80;99.90;;;;;;5025217;28;20295;-85
2023/03/20 03:40:21;;;;;;;24.70;11.87;;;8.70;99.90;;;;;;5017388;28;20204;-82
2023/03/20 03:42:56;;;;;;;31.87;12.00;;;8.50;99.90;;;;;;5024008;28;20289;-82
2023/03/20 03:45:30;;;;;;;23.97;11.50;;;8.50;99.90;;;;;;5008331;28;20208;-81
2023/03/20 03:48:01;;;;;;;27.30;11.70;;;8.50;99.90;;;;;;5011583;28;20277;-84
2023/03/20 03:50:32;;;;;;;26.03;11.70;;;8.20;99.90;;;;;;5014810;28;20208;-82
2023/03/20 03:53:03;;;;;;;25.33;11.17;;;8.10;99.90;;;;;;5025938;28;20307;-84
2023/03/20 03:55:37;;;;;;;28.60;11.90;;;7.90;99.90;;;;;;5013288;28;20283;-81
2023/03/20 03:58:08;;;;;;;28.90;12.67;;;8.00;99.90;;;;;;5014391;28;20264;-83
2023/03/20 04:00:37;;;;;;;23.60;10.73;;;8.00;99.90;;;;;;5021434;28;20179;-82
2023/03/20 04:03:07;;;;;;;26.77;11.67;;;8.00;99.90;;;;;;5021685;28;20319;-82
2023/03/20 04:05:37;;;;;;;25.43;10.53;;;8.00;99.90;;;;;;5023122;28;20205;-81
2023/03/20 04:08:06;;;;;;;27.67;11.90;;;8.10;99.90;;;;;;5012063;28;20632;-84
2023/03/20 04:10:34;;;;;;;26.87;11.27;;;8.20;99.90;;;;;;5025399;28;20212;-83
2023/03/20 04:13:01;;;;;;;25.67;10.80;;;8.10;99.90;;;;;;5022673;28;20471;-83
2023/03/20 04:15:28;;;;;;;26.27;11.33;;;8.10;99.90;;;;;;5022956;28;20674;-83
2023/03/20 04:17:55;;;;;;;29.07;12.57;;;8.20;99.90;;;;;;5005454;28;20228;-82
2023/03/20 04:20:22;;;;;;;27.03;12.83;;;8.20;99.90;;;;;;5004933;28;20221;-82
2023/03/20 04:22:49;;;;;;;27.20;12.40;;;8.30;99.90;;;;;;5005626;28;20660;-82
2023/03/20 04:25:18;;;;;;;26.67;12.43;;;8.30;99.90;;;;;;5004711;28;20205;-82
2023/03/20 04:27:46;;;;;;;29.20;13.87;;;8.40;99.90;;;;;;5023930;28;20210;-82
2023/03/20 04:30:13;;;;;;;30.90;14.27;;;8.50;99.90;;;;;;5022004;28;20209;-82
2023/03/20 04:32:40;;;;;;;29.73;13.13;;;8.60;99.90;;;;;;5021902;28;20238;-80
2023/03/20 04:35:08;;;;;;;30.57;13.87;;;8.60;99.90;;;;;;5023510;28;20224;-81
2023/03/20 04:37:35;;;;;;;31.03;13.43;;;8.70;99.90;;;;;;5022004;28;20212;-82
2023/03/20 04:40:02;;;;;;;31.53;13.63;;;8.70;99.90;;;;;;5023082;28;20208;-82
2023/03/20 04:42:29;;;;;;;29.43;13.00;;;8.70;99.90;;;;;;5022465;28;20707;-81
2023/03/20 04:44:57;;;;;;;29.57;13.10;;;8.80;99.90;;;;;;5021392;28;20231;-81
2023/03/20 04:47:24;;;;;;;28.97;12.70;;;8.70;99.90;;;;;;5023269;28;20649;-81
2023/03/20 04:49:51;;;;;;;28.83;12.30;;;8.80;99.90;;;;;;5023159;28;20678;-81
2023/03/20 04:52:18;;;;;;;26.80;12.30;;;8.90;99.90;;;;;;5022982;28;20238;-81
2023/03/20 04:54:45;;;;;;;28.27;13.60;;;9.00;99.90;;;;;;5023453;28;20204;-81
2023/03/20 04:57:12;;;;;;;34.43;13.93;;;8.90;99.90;;;;;;5021354;28;20611;-84
2023/03/20 04:59:38;;;;;;;29.00;13.07;;;9.00;99.90;;;;;;5021760;28;20713;-82
2023/03/20 05:02:06;;;;;;;29.17;12.57;;;9.00;99.90;;;;;;5022223;28;20224;-82
2023/03/20 05:04:33;;;;;;;29.40;13.70;;;8.90;99.90;;;;;;5015458;28;20223;-81
2023/03/20 05:07:00;;;;;;;31.77;13.67;;;8.90;99.90;;;;;;5021463;28;20204;-82
2023/03/20 05:09:27;;;;;;;27.60;12.87;;;8.90;99.90;;;;;;5016845;28;20196;-82
2023/03/20 05:11:54;;;;;;;29.10;13.37;;;8.90;99.90;;;;;;5014360;28;20229;-81
2023/03/20 05:14:21;;;;;;;31.53;13.43;;;8.90;99.90;;;;;;5002435;28;20209;-83
2023/03/20 05:16:48;;;;;;;33.40;14.13;;;8.80;99.90;;;;;;5001316;28;20230;-81
2023/03/20 05:19:16;;;;;;;31.67;14.17;;;8.80;99.90;;;;;;5003458;28;20700;-82
2023/03/20 05:21:43;;;;;;;31.83;13.90;;;8.90;99.90;;;;;;5003334;28;20717;-83
2023/03/20 05:24:10;;;;;;;30.93;13.63;;;8.90;99.90;;;;;;5003397;28;20296;-81
2023/03/20 05:26:37;;;;;;;33.50;13.23;;;8.90;99.90;;;;;;5003983;28;20201;-81
2023/03/20 05:29:04;;;;;;;31.97;13.63;;;8.90;99.90;;;;;;5003616;28;20201;-83
2023/03/20 05:31:30;;;;;;;29.57;13.70;;;8.90;99.90;;;;;;5003839;28;20229;-81
2023/03/20 05:33:57;;;;;;;30.63;13.33;;;8.90;99.90;;;;;;5003922;28;20212;-82
2023/03/20 05:36:25;;;;;;;30.87;13.03;;;8.90;99.90;;;;;;5003057;28;20225;-84
2023/03/20 05:38:52;;;;;;;28.77;12.87;;;8.90;99.90;;;;;;5004237;28;20209;-82
2023/03/20 05:41:19;;;;;;;31.43;13.77;;;9.00;99.90;;;;;;5003553;28;20701;-81
2023/03/20 05:43:46;;;;;;;34.37;14.53;;;8.80;99.90;;;;;;5003766;28;20666;-81
2023/03/20 05:46:12;;;;;;;29.50;13.17;;;8.90;99.90;;;;;;5002827;28;20669;-83
2023/03/20 05:48:39;;;;;;;30.63;14.00;;;9.00;99.90;;;;;;5003086;28;20217;-81
2023/03/20 05:51:07;;;;;;;35.10;14.63;;;9.00;99.90;;;;;;5003376;28;20682;-82
2023/03/20 05:53:35;;;;;;;34.20;14.37;;;9.10;99.90;;;;;;5004155;28;20741;-81
2023/03/20 05:56:02;;;;;;;30.80;13.33;;;9.10;99.90;;;;;;5004118;28;20224;-82
2023/03/20 05:58:28;;;;;;;29.70;13.27;;;9.10;99.90;;;;;;5003122;28;20208;-81
2023/03/20 06:00:57;;;;;;;27.80;12.70;;;9.10;99.90;;;;;;5002769;28;20209;-83
2023/03/20 06:03:24;;;;;;;34.77;14.20;;;9.10;99.90;;;;;;5003145;28;20578;-81
2023/03/20 06:05:50;;;;;;;30.17;14.50;;;9.20;99.90;;;;;;5003680;28;20292;-82
2023/03/20 06:08:17;;;;;;;32.27;13.80;;;9.20;99.90;;;;;;5003578;28;20204;-81
2023/03/20 06:10:45;;;;;;;31.67;12.73;;;9.20;99.90;;;;;;5004275;28;20221;-83
2023/03/20 06:13:12;;;;;;;30.60;13.17;;;9.20;99.90;;;;;;5004454;28;20224;-81
2023/03/20 06:15:39;;;;;;;34.57;14.13;;;9.30;99.90;;;;;;5004682;28;20244;-82
2023/03/20 06:18:06;;;;;;;33.53;14.00;;;9.20;99.90;;;;;;5003940;28;20917;-81
2023/03/20 06:20:33;;;;;;;36.57;14.70;;;9.30;99.90;;;;;;5004651;28;20211;-82
2023/03/20 06:23:00;;;;;;;34.37;15.17;;;9.30;99.90;;;;;;5004188;28;20803;-81
2023/03/20 06:25:28;;;;;;;31.97;13.87;;;9.40;99.90;;;;;;5003696;28;20637;-82
2023/03/20 06:27:56;;;;;;;33.37;14.53;;;9.30;99.90;;;;;;5004575;28;20597;-84
2023/03/20 06:30:23;;;;;;;35.37;14.47;;;9.30;99.90;;;;;;5004095;28;20240;-83
2023/03/20 06:32:50;;;;;;;35.87;14.77;;;9.40;99.90;;;;;;5004094;28;20319;-82
2023/03/20 06:35:17;;;;;;;32.13;13.53;;;9.50;99.90;;;;;;5004242;28;20205;-82
2023/03/20 06:37:44;;;;;;;35.37;14.33;;;9.30;99.90;;;;;;5007854;28;20231;-83
2023/03/20 06:40:11;;;;;;;35.67;14.77;;;9.40;99.90;;;;;;5007846;28;20209;-83
2023/03/20 06:42:38;;;;;;;33.20;14.67;;;9.50;99.90;;;;;;5008133;28;20592;-82
2023/03/20 06:45:08;;;;;;;36.17;15.17;;;9.50;99.90;;;;;;5008505;28;20209;-83
2023/03/20 06:47:34;;;;;;;35.43;14.90;;;9.50;99.90;;;;;;5008603;28;20623;-82
2023/03/20 06:50:01;;;;;;;39.80;17.67;;;9.50;99.90;;;;;;5007975;28;20224;-82
2023/03/20 06:52:28;;;;;;;34.53;14.70;;;9.50;99.90;;;;;;5007976;28;20599;-83
2023/03/20 06:54:55;;;;;;;37.57;15.87;;;9.50;99.90;;;;;;5008142;28;20579;-83
2023/03/20 06:57:22;;;;;;;38.10;16.33;;;9.50;99.90;;;;;;5006325;28;20363;-81
2023/03/20 06:59:49;;;;;;;31.27;14.20;;;9.50;99.90;;;;;;5008197;28;20316;-82
2023/03/20 07:02:17;;;;;;;33.50;15.07;;;9.50;99.90;;;;;;5007574;28;20705;-82
2023/03/20 07:04:43;;;;;;;37.27;15.47;;;9.60;99.90;;;;;;5026765;28;20701;-82
2023/03/20 07:07:10;;;;;;;39.27;15.43;;;9.50;99.90;;;;;;5033570;28;20247;-81
2023/03/20 07:09:37;;;;;;;37.07;15.60;;;9.50;99.90;;;;;;5017283;28;20272;-84
2023/03/20 07:12:04;;;;;;;32.67;13.73;;;9.60;99.90;;;;;;5021083;28;20229;-81
2023/03/20 07:14:31;;;;;;;37.70;18.27;;;9.60;99.90;;;;;;5006820;28;20828;-83
2023/03/20 07:16:58;;;;;;;38.13;17.17;;;9.50;99.90;;;;;;5003236;28;20689;-82
2023/03/20 07:19:26;;;;;;;35.67;15.93;;;9.50;99.90;;;;;;5020039;28;20208;-82
2023/03/20 07:22:00;;;;;;;38.63;15.60;;;9.50;99.90;;;;;;5043472;28;20234;-82
2023/03/20 07:24:27;;;;;;;38.23;15.53;;;9.50;99.90;;;;;;5039998;28;20240;-81
2023/03/20 07:26:54;;;;;;;32.27;15.13;;;9.60;99.90;;;;;;5025841;28;20272;-83
2023/03/20 07:29:20;;;;;;;32.60;14.77;;;9.60;99.90;;;;;;5024396;28;20887;-82
2023/03/20 07:31:47;;;;;;;33.30;14.50;;;9.70;99.90;;;;;;5025234;28;20229;-82
2023/03/20 07:34:14;;;;;;;32.37;14.87;;;9.70;99.90;;;;;;5025832;28;20211;-81
2023/03/20 07:36:43;;;;;;;34.40;15.17;;;9.70;99.90;;;;;;5022220;28;20819;-82
2023/03/20 07:39:10;;;;;;;30.93;14.83;;;9.90;99.90;;;;;;5023828;28;20653;-82
2023/03/20 07:41:37;;;;;;;33.77;14.20;;;9.90;99.90;;;;;;5024016;28;20228;-82
2023/03/20 07:44:06;;;;;;;32.33;14.57;;;10.00;99.90;;;;;;5023038;28;20212;-81
2023/03/20 07:46:33;;;;;;;28.67;13.83;;;10.00;99.90;;;;;;5024224;28;20855;-82
2023/03/20 07:49:00;;;;;;;33.40;15.20;;;10.00;99.90;;;;;;5024583;28;20212;-82
2023/03/20 07:51:27;;;;;;;31.27;13.83;;;10.20;99.90;;;;;;5022972;28;20291;-82
2023/03/20 07:53:55;;;;;;;30.57;13.60;;;10.00;99.90;;;;;;5023820;28;20643;-84
2023/03/20 07:56:21;;;;;;;30.70;13.77;;;9.90;99.90;;;;;;5024280;28;20246;-82
2023/03/20 07:58:48;;;;;;;29.80;14.17;;;9.90;99.90;;;;;;5004311;28;20201;-83
2023/03/20 08:01:15;;;;;;;29.83;14.10;;;9.90;99.90;;;;;;5004267;28;20663;-82
2023/03/20 08:03:42;;;;;;;32.40;14.73;;;9.80;99.90;;;;;;5022832;28;20208;-84
2023/03/20 08:06:09;;;;;;;27.03;13.50;;;9.80;99.90;;;;;;5023030;28;20197;-83
2023/03/20 08:08:36;;;;;;;30.00;14.20;;;9.80;99.90;;;;;;5024158;28;20207;-82
2023/03/20 08:11:05;;;;;;;30.90;15.07;;;9.80;99.90;;;;;;5024016;28;20216;-82
2023/03/20 08:13:32;;;;;;;32.23;14.80;;;9.70;99.90;;;;;;5023454;28;20266;-83
2023/03/20 08:15:59;;;;;;;30.13;14.33;;;9.80;99.90;;;;;;5022929;28;20291;-81
2023/03/20 08:18:26;;;;;;;32.53;15.40;;;9.80;99.90;;;;;;5023754;28;20280;-81
2023/03/20 08:20:52;;;;;;;33.67;15.53;;;9.90;99.90;;;;;;5024457;28;20204;-84
2023/03/20 08:23:19;;;;;;;29.73;15.07;;;10.10;99.90;;;;;;5024875;28;20223;-83
2023/03/20 08:25:48;;;;;;;30.80;15.10;;;10.10;99.90;;;;;;5024232;28;20217;-82
2023/03/20 08:28:17;;;;;;;28.73;13.50;;;10.20;99.90;;;;;;5024741;28;20199;-82
2023/03/20 08:30:43;;;;;;;28.87;14.07;;;10.20;99.90;;;;;;5022426;28;20690;-83
2023/03/20 08:33:10;;;;;;;29.63;13.70;;;10.20;99.90;;;;;;5024767;28;20330;-81
2023/03/20 08:35:38;;;;;;;30.77;13.93;;;10.20;99.90;;;;;;5024511;28;20204;-84
2023/03/20 08:38:04;;;;;;;27.83;13.27;;;10.30;99.90;;;;;;5023645;28;20242;-82
2023/03/20 08:40:31;;;;;;;28.03;13.70;;;10.30;99.90;;;;;;5024815;28;20215;-82
2023/03/20 08:42:58;;;;;;;29.33;13.57;;;10.20;99.90;;;;;;5023216;28;20212;-83
2023/03/20 08:45:26;;;;;;;25.40;13.03;;;10.30;99.90;;;;;;5025052;28;20220;-82
2023/03/20 08:47:53;;;;;;;28.10;13.70;;;10.20;99.90;;;;;;5022790;28;20196;-83
2023/03/20 08:50:20;;;;;;;29.47;13.53;;;10.20;99.90;;;;;;5023770;28;20228;-84
2023/03/20 08:52:47;;;;;;;27.40;12.87;;;10.30;99.90;;;;;;5022475;28;20225;-82
2023/03/20 08:55:15;;;;;;;26.20;12.53;;;10.30;99.90;;;;;;5023895;28;20204;-82
2023/03/20 08:57:42;;;;;;;26.87;12.00;;;10.30;99.90;;;;;;5022471;28;20220;-82
2023/03/20 09:00:13;;;;;;;23.83;11.10;;;10.40;99.90;;;;;;5022172;28;20244;-83
2023/03/20 09:02:41;;;;;;;24.10;11.43;;;10.50;99.90;;;;;;5024706;28;20224;-83
2023/03/20 09:05:09;;;;;;;22.57;10.80;;;10.60;99.90;;;;;;5023870;28;20205;-82
2023/03/20 09:07:36;;;;;;;21.13;10.03;;;10.50;99.90;;;;;;5013894;28;20212;-82
2023/03/20 09:10:03;;;;;;;22.23;10.23;;;10.50;99.90;;;;;;5028225;28;20262;-81
2023/03/20 09:12:31;;;;;;;20.73;9.97;;;10.70;99.90;;;;;;5029068;28;20252;-83
2023/03/20 09:14:58;;;;;;;18.97;9.33;;;10.70;99.90;;;;;;5022225;28;20288;-82
2023/03/20 09:17:25;;;;;;;19.93;9.27;;;10.70;99.90;;;;;;5021748;28;20256;-82
2023/03/20 09:19:54;;;;;;;20.80;10.67;;;10.70;99.90;;;;;;5023029;28;20234;-84
2023/03/20 09:22:20;;;;;;;23.30;10.40;;;10.60;99.90;;;;;;5020872;28;20224;-82
2023/03/20 09:24:47;;;;;;;24.63;11.60;;;10.60;99.90;;;;;;5022268;28;20204;-83
2023/03/20 09:27:14;;;;;;;23.60;11.27;;;10.60;99.90;;;;;;5014874;28;20211;-81
2023/03/20 09:29:41;;;;;;;23.30;11.23;;;10.60;99.90;;;;;;5000482;28;20205;-82
2023/03/20 09:32:10;;;;;;;24.70;12.03;;;10.60;99.90;;;;;;5005750;28;20248;-82
2023/03/20 09:34:36;;;;;;;22.57;11.30;;;10.60;99.90;;;;;;5022258;28;20203;-83
2023/03/20 09:37:05;;;;;;;23.73;11.63;;;10.50;99.90;;;;;;5023020;28;20319;-82
2023/03/20 09:39:32;;;;;;;24.70;11.83;;;10.60;99.90;;;;;;5022332;28;20204;-83
2023/03/20 09:42:04;;;;;;;23.80;12.27;;;10.60;99.90;;;;;;5029870;28;20222;-84
2023/03/20 09:44:44;;;;;;;26.10;12.27;;;10.60;99.90;;;;;;5015985;28;20200;-83
2023/03/20 09:47:18;;;;;;;24.57;12.60;;;10.60;99.90;;;;;;5011241;28;20200;-81
2023/03/20 09:49:55;;;;;;;26.40;12.23;;;10.60;99.90;;;;;;5016965;28;20204;-83
2023/03/20 09:52:28;;;;;;;26.63;12.67;;;10.50;99.90;;;;;;5015845;28;20236;-83
2023/03/20 09:54:58;;;;;;;27.00;13.53;;;10.50;99.90;;;;;;5009825;28;20589;-82
2023/03/20 09:57:28;;;;;;;30.70;14.83;;;10.60;99.90;;;;;;5021829;28;20230;-83
2023/03/20 09:59:58;;;;;;;29.20;14.27;;;10.50;99.90;;;;;;5020389;28;20208;-82
2023/03/20 10:02:35;;;;;;;32.60;16.03;;;10.40;99.90;;;;;;5011944;28;20233;-82
2023/03/20 10:05:04;;;;;;;29.10;15.87;;;10.50;99.90;;;;;;5000990;28;20296;-83
2023/03/20 10:07:32;;;;;;;33.00;15.30;;;10.50;99.90;;;;;;4999787;28;20236;-82
2023/03/20 10:09:59;;;;;;;35.97;18.33;;;10.50;99.90;;;;;;5012965;28;20299;-83
2023/03/20 10:12:47;;;;;;;38.23;19.37;;;10.50;99.90;;;;;;5019965;28;20311;-82
2023/03/20 10:15:20;;;;;;;39.53;19.93;;;10.50;99.90;;;;;;5019773;28;20222;-82
2023/03/20 10:17:53;;;;;;;38.30;19.37;;;10.50;99.90;;;;;;5028334;28;20223;-83
2023/03/20 10:20:28;;;;;;;39.80;21.53;;;10.50;99.90;;;;;;5034537;28;20202;-82
2023/03/20 10:23:03;;;;;;;34.33;18.80;;;10.60;99.90;;;;;;5027718;28;20231;-84
2023/03/20 10:25:32;;;;;;;34.13;18.77;;;10.70;99.90;;;;;;5021929;28;20200;-82
2023/03/20 10:28:03;;;;;;;32.50;17.67;;;10.80;99.90;;;;;;5020790;28;21006;-82
2023/03/20 10:30:50;;;;;;;31.63;19.03;;;11.00;99.90;;;;;;5021362;28;20200;-82
2023/03/20 10:33:30;;;;;;;31.20;17.90;;;11.00;99.90;;;;;;5020227;28;20663;-82
2023/03/20 10:36:10;;;;;;;29.87;17.07;;;10.80;99.90;;;;;;5018970;28;20219;-82
2023/03/20 10:38:44;;;;;;;29.40;16.50;;;10.80;99.90;;;;;;5021352;28;20232;-83
2023/03/20 10:41:16;;;;;;;27.63;16.83;;;10.80;99.90;;;;;;5020595;28;20207;-83
2023/03/20 10:43:45;;;;;;;27.77;15.53;;;10.90;99.90;;;;;;5020588;28;20215;-82
2023/03/20 10:46:15;;;;;;;25.73;16.00;;;10.80;99.90;;;;;;5019441;28;20210;-82
2023/03/20 10:48:46;;;;;;;26.20;16.20;;;11.00;99.90;;;;;;5019287;28;20208;-81
2023/03/20 10:51:16;;;;;;;26.43;15.57;;;11.00;99.90;;;;;;5021855;28;20208;-82
2023/03/20 10:53:47;;;;;;;25.27;15.50;;;11.20;99.90;;;;;;5019745;28;20214;-82
2023/03/20 10:56:21;;;;;;;26.37;15.37;;;11.20;99.90;;;;;;5021031;28;20217;-81
2023/03/20 10:58:58;;;;;;;27.03;15.63;;;11.20;99.90;;;;;;5019817;28;20226;-82
2023/03/20 11:01:24;;;;;;;28.23;15.77;;;11.40;99.90;;;;;;5020858;28;20230;-82
2023/03/20 11:03:51;;;;;;;24.97;15.80;;;11.60;99.90;;;;;;5010030;28;20209;-82
2023/03/20 11:06:22;;;;;;;23.90;14.60;;;11.90;99.90;;;;;;5002358;28;20684;-82
2023/03/20 11:08:52;;;;;;;25.63;15.43;;;12.00;99.90;;;;;;5011272;28;20219;-83
2023/03/20 11:11:24;;;;;;;23.60;15.17;;;12.00;99.90;;;;;;5020103;28;20234;-81
2023/03/20 11:13:51;;;;;;;21.53;14.03;;;12.00;99.90;;;;;;5020318;28;20571;-82
2023/03/20 11:16:21;;;;;;;24.40;15.13;;;12.20;99.90;;;;;;5018697;28;20276;-83
2023/03/20 11:18:49;;;;;;;21.27;14.17;;;12.40;99.90;;;;;;5020772;28;20235;-82
2023/03/20 11:21:19;;;;;;;20.00;13.73;;;12.60;99.90;;;;;;5022272;28;20204;-83
2023/03/20 11:23:47;;;;;;;19.13;12.90;;;12.40;99.90;;;;;;5026220;28;20237;-85
2023/03/20 11:26:17;;;;;;;18.43;12.57;;;12.40;99.90;;;;;;5024710;28;20235;-82
2023/03/20 11:28:50;;;;;;;18.87;12.50;;;12.30;99.90;;;;;;5024918;28;20291;-82
2023/03/20 11:31:19;;;;;;;20.63;12.93;;;12.10;99.90;;;;;;5024133;28;20238;-80
2023/03/20 11:33:50;;;;;;;18.03;12.50;;;12.00;99.90;;;;;;5025122;28;20215;-81
2023/03/20 11:36:23;;;;;;;19.13;13.17;;;12.00;99.90;;;;;;5023311;28;20195;-83
2023/03/20 11:38:51;;;;;;;19.10;12.00;;;12.00;99.90;;;;;;5023326;28;20600;-83
2023/03/20 11:41:23;;;;;;;17.47;12.00;;;12.20;99.90;;;;;;5024102;28;20784;-83
2023/03/20 11:43:50;;;;;;;18.17;11.60;;;12.10;99.90;;;;;;5014959;28;20205;-83
2023/03/20 11:46:20;;;;;;;17.77;11.77;;;12.10;99.90;;;;;;5002660;28;20207;-83
2023/03/20 11:48:47;;;;;;;18.23;12.77;;;11.90;99.90;;;;;;5016536;28;20196;-84
2023/03/20 11:51:16;;;;;;;17.40;12.80;;;11.70;99.90;;;;;;5024126;28;20798;-83
2023/03/20 11:53:57;;;;;;;18.43;12.63;;;11.90;99.90;;;;;;5011127;28;20219;-82
2023/03/20 11:56:28;;;;;;;20.77;12.70;;;11.90;99.90;;;;;;5015261;28;20214;-81
2023/03/20 11:58:58;;;;;;;19.47;13.57;;;12.00;99.90;;;;;;5021667;28;20732;-83
2023/03/20 12:01:26;;;;;;;18.63;12.90;;;12.10;99.90;;;;;;5022317;28;20311;-81
2023/03/20 12:04:00;;;;;;;19.17;13.80;;;12.70;99.90;;;;;;5005214;28;20232;-83
2023/03/20 12:06:37;;;;;;;18.73;12.93;;;13.00;99.90;;;;;;5015972;28;20208;-84
2023/03/20 12:09:09;;;;;;;17.40;12.73;;;13.20;99.90;;;;;;5021869;28;20200;-82
2023/03/20 12:11:47;;;;;;;20.63;14.00;;;13.10;99.90;;;;;;5024109;28;20234;-82
2023/03/20 12:14:23;;;;;;;18.63;12.93;;;12.80;99.90;;;;;;5024298;28;20208;-82
2023/03/20 12:16:55;;;;;;;17.60;11.83;;;12.50;99.90;;;;;;5019419;28;20260;-83
2023/03/20 12:19:29;;;;;;;17.83;12.23;;;12.30;99.90;;;;;;5022314;28;20224;-83
2023/03/20 12:22:03;;;;;;;16.60;12.03;;;12.20;99.90;;;;;;5022806;28;20254;-82
2023/03/20 12:24:37;;;;;;;18.73;13.13;;;12.20;99.90;;;;;;5024480;28;20204;-84
2023/03/20 12:27:21;;;;;;;19.40;12.90;;;12.40;99.90;;;;;;5015259;28;20323;-83
2023/03/20 12:29:51;;;;;;;19.67;13.17;;;12.80;99.90;;;;;;5023912;28;20664;-84
2023/03/20 12:32:24;;;;;;;18.87;13.23;;;12.80;99.90;;;;;;5023930;28;20228;-84
2023/03/20 12:34:55;;;;;;;19.93;14.30;;;12.70;99.90;;;;;;5026903;28;20188;-82
2023/03/20 12:37:22;;;;;;;20.23;14.03;;;12.70;99.90;;;;;;5026178;28;20236;-85
2023/03/20 12:39:52;;;;;;;22.03;14.87;;;12.50;99.90;;;;;;5025160;28;20263;-82
2023/03/20 12:42:32;;;;;;;20.30;14.90;;;12.70;99.90;;;;;;5024299;28;20606;-83
2023/03/20 12:45:04;;;;;;;19.83;13.90;;;13.20;99.90;;;;;;5024524;28;20208;-81
2023/03/20 12:47:49;;;;;;;18.37;13.10;;;13.00;99.90;;;;;;5024626;28;20211;-82